Time;durP1;ratioP1;P1;durP2;ratioP2;P2;SDS_P1;SDS_P2;PMS_P1;PMS_P2;Temp;Humidity;BMP_temperature;BMP_pressure;BME280_temperature;BME280_humidity;BME280_pressure;Samples;Min_cycle;Max_cycle;Signal;HPM_P1;HPM_P2
2022/11/30 05:00:44;;;;;;;38.80;31.90;;;7.30;99.90;;;;;;5843050;23;20575;-64
2022/11/30 05:03:11;;;;;;;32.63;28.90;;;7.30;99.90;;;;;;4995261;28;20450;-62
2022/11/30 05:05:37;;;;;;;32.57;28.27;;;7.30;99.90;;;;;;4995400;28;20479;-63
2022/11/30 05:08:04;;;;;;;31.27;28.03;;;7.30;99.90;;;;;;4995264;28;20478;-63
2022/11/30 05:10:32;;;;;;;30.60;27.30;;;7.30;99.90;;;;;;4995233;28;20547;-63
2022/11/30 05:12:59;;;;;;;32.50;28.20;;;7.30;99.90;;;;;;4994994;28;20457;-63
2022/11/30 05:15:26;;;;;;;31.60;28.20;;;7.30;99.90;;;;;;4995018;28;20458;-63
2022/11/30 05:17:58;;;;;;;31.03;26.83;;;7.40;99.90;;;;;;4995128;28;20802;-63
2022/11/30 05:20:25;;;;;;;31.20;27.80;;;7.40;99.90;;;;;;4994772;28;20979;-63
2022/11/30 05:22:51;;;;;;;32.33;27.60;;;7.40;99.90;;;;;;4995031;28;20816;-63
2022/11/30 05:25:18;;;;;;;31.20;27.63;;;7.40;99.90;;;;;;4995085;28;20458;-63
2022/11/30 05:27:45;;;;;;;31.90;27.30;;;7.40;99.90;;;;;;4994597;28;20477;-62
2022/11/30 05:30:14;;;;;;;30.00;26.67;;;7.30;99.90;;;;;;4994875;28;20507;-62
2022/11/30 05:32:40;;;;;;;30.10;26.77;;;7.30;99.90;;;;;;4994906;28;20454;-62
2022/11/30 05:35:09;;;;;;;32.70;27.97;;;7.30;99.90;;;;;;4994723;28;20516;-63
2022/11/30 05:37:36;;;;;;;32.90;27.43;;;7.30;99.90;;;;;;4994470;28;20945;-63
2022/11/30 05:40:03;;;;;;;30.20;26.90;;;7.30;99.90;;;;;;4994420;28;20945;-63
2022/11/30 05:42:29;;;;;;;31.80;27.40;;;7.40;99.90;;;;;;4994719;28;20480;-64
2022/11/30 05:44:56;;;;;;;31.73;27.20;;;7.40;99.90;;;;;;4994647;28;20461;-63
2022/11/30 05:47:23;;;;;;;31.17;26.23;;;7.40;99.90;;;;;;4994232;28;20508;-63
2022/11/30 05:49:49;;;;;;;28.10;24.90;;;7.40;99.90;;;;;;4994770;28;20480;-63
2022/11/30 05:52:17;;;;;;;31.80;26.53;;;7.40;99.90;;;;;;4994475;28;20528;-63
2022/11/30 05:54:44;;;;;;;29.20;24.90;;;7.40;99.90;;;;;;4994429;28;20453;-63
2022/11/30 05:57:10;;;;;;;30.63;26.20;;;7.40;99.90;;;;;;4994537;28;20530;-63
2022/11/30 05:59:37;;;;;;;29.80;25.33;;;7.40;99.90;;;;;;4994405;28;20488;-63
2022/11/30 06:02:04;;;;;;;32.03;27.03;;;7.40;99.90;;;;;;4994098;28;20860;-63
2022/11/30 06:04:30;;;;;;;32.17;27.23;;;7.30;99.90;;;;;;4994481;28;20480;-63
2022/11/30 06:06:57;;;;;;;32.30;26.73;;;7.30;99.90;;;;;;4994232;28;20996;-63
2022/11/30 06:09:25;;;;;;;30.77;26.53;;;7.30;99.90;;;;;;4994378;28;20477;-63
2022/11/30 06:11:52;;;;;;;29.10;25.30;;;7.30;99.90;;;;;;4996119;28;20504;-63
2022/11/30 06:14:18;;;;;;;33.07;27.27;;;7.30;99.90;;;;;;5000610;28;20948;-63
2022/11/30 06:16:45;;;;;;;31.00;26.23;;;7.20;99.90;;;;;;5001032;28;20817;-63
2022/11/30 06:19:12;;;;;;;29.00;25.80;;;7.20;99.90;;;;;;5000665;28;20854;-63
2022/11/30 06:21:38;;;;;;;33.07;25.50;;;7.20;99.90;;;;;;5000746;28;20536;-63
2022/11/30 06:24:06;;;;;;;30.30;25.93;;;7.20;99.90;;;;;;5002673;28;20458;-65
2022/11/30 06:26:34;;;;;;;34.47;25.50;;;7.30;99.90;;;;;;5002589;28;20464;-64
2022/11/30 06:29:00;;;;;;;30.40;24.90;;;7.30;99.90;;;;;;5002607;28;20477;-63
2022/11/30 06:31:27;;;;;;;27.57;23.13;;;7.30;99.90;;;;;;5001276;28;20469;-63
2022/11/30 06:33:56;;;;;;;26.83;23.00;;;7.30;99.90;;;;;;5000823;28;20949;-63
2022/11/30 06:36:23;;;;;;;26.47;23.17;;;7.30;99.90;;;;;;5001411;28;20460;-63
2022/11/30 06:38:50;;;;;;;25.53;22.80;;;7.30;99.90;;;;;;5001549;28;20508;-63
2022/11/30 06:41:17;;;;;;;26.20;23.40;;;7.30;99.90;;;;;;5000701;28;20992;-63
2022/11/30 06:43:46;;;;;;;27.93;24.80;;;7.30;99.90;;;;;;5000908;28;20454;-64
2022/11/30 06:46:12;;;;;;;27.53;24.37;;;7.30;99.90;;;;;;5000701;28;20936;-63
2022/11/30 06:48:39;;;;;;;29.53;22.97;;;7.30;99.90;;;;;;5000153;28;21035;-63
2022/11/30 06:51:07;;;;;;;25.37;22.33;;;7.30;99.90;;;;;;5000577;28;20474;-63
2022/11/30 06:53:33;;;;;;;27.27;23.50;;;7.30;99.90;;;;;;5000578;28;20457;-63
2022/11/30 06:56:05;;;;;;;29.30;23.97;;;7.30;99.90;;;;;;5000503;28;20611;-64
2022/11/30 06:58:31;;;;;;;27.70;24.30;;;7.30;99.90;;;;;;5000563;28;20434;-63
2022/11/30 07:00:59;;;;;;;25.87;23.07;;;7.40;99.90;;;;;;5000178;28;20488;-64
2022/11/30 07:03:26;;;;;;;27.30;22.97;;;7.40;99.90;;;;;;5001195;28;20771;-63
2022/11/30 07:05:53;;;;;;;26.30;22.70;;;7.40;99.90;;;;;;5000615;28;20520;-63
2022/11/30 07:08:20;;;;;;;29.00;23.80;;;7.40;99.90;;;;;;5000744;28;20577;-63
2022/11/30 07:10:47;;;;;;;27.13;23.90;;;7.40;99.90;;;;;;5007131;28;20470;-63
2022/11/30 07:13:16;;;;;;;26.57;23.67;;;7.40;99.90;;;;;;5005888;28;20516;-63
2022/11/30 07:15:43;;;;;;;27.20;23.80;;;7.40;99.90;;;;;;5004760;28;20862;-62
2022/11/30 07:18:12;;;;;;;25.13;22.17;;;7.50;99.90;;;;;;5000774;28;20500;-62
2022/11/30 07:20:39;;;;;;;26.03;22.77;;;7.50;99.90;;;;;;5000597;28;20500;-62
2022/11/30 07:28:32;;;;;;;24.37;21.77;;;7.60;99.90;;;;;;4997493;28;20484;-62
2022/11/30 07:30:58;;;;;;;25.13;22.03;;;7.50;99.90;;;;;;4997441;28;20484;-62
2022/11/30 07:33:26;;;;;;;24.47;21.70;;;7.50;99.90;;;;;;4997114;28;20481;-62
2022/11/30 07:35:53;;;;;;;25.00;21.20;;;7.50;99.90;;;;;;4997071;28;20458;-63
2022/11/30 07:38:20;;;;;;;24.60;21.77;;;7.60;99.90;;;;;;4997180;28;20500;-63
2022/11/30 07:40:47;;;;;;;25.77;21.67;;;7.60;99.90;;;;;;4996933;28;20478;-63
2022/11/30 07:43:14;;;;;;;27.53;22.47;;;7.60;99.90;;;;;;4996710;28;20458;-64
2022/11/30 07:45:41;;;;;;;24.10;20.17;;;7.70;99.90;;;;;;4997032;28;20853;-63
2022/11/30 07:48:08;;;;;;;23.37;20.07;;;7.70;99.90;;;;;;4996797;28;20864;-63
2022/11/30 07:50:36;;;;;;;26.03;21.03;;;7.70;99.90;;;;;;4996754;28;20476;-62
2022/11/30 07:53:03;;;;;;;22.00;19.17;;;7.80;99.90;;;;;;4996863;28;20453;-64
2022/11/30 07:55:30;;;;;;;23.30;18.67;;;7.80;99.90;;;;;;4996916;28;20456;-63
2022/11/30 07:57:57;;;;;;;22.57;19.67;;;7.80;99.90;;;;;;4997866;28;20449;-63
2022/11/30 08:00:24;;;;;;;25.33;19.80;;;7.90;99.90;;;;;;4996432;28;20473;-62
2022/11/30 08:02:51;;;;;;;20.43;18.23;;;7.90;99.90;;;;;;4996861;28;20438;-62
2022/11/30 08:05:17;;;;;;;20.60;18.40;;;8.00;99.90;;;;;;4996485;28;20536;-63
2022/11/30 08:07:45;;;;;;;20.90;18.23;;;8.10;99.90;;;;;;4996372;28;20955;-63
2022/11/30 08:10:12;;;;;;;22.53;19.57;;;8.20;99.90;;;;;;4996721;28;20481;-62
2022/11/30 08:12:38;;;;;;;21.20;18.60;;;8.20;99.90;;;;;;4996415;28;20465;-62
2022/11/30 08:15:07;;;;;;;23.00;19.83;;;8.20;99.90;;;;;;4996497;28;20462;-62
2022/11/30 08:17:34;;;;;;;25.23;18.83;;;8.20;99.90;;;;;;4996430;28;20472;-62
2022/11/30 08:20:00;;;;;;;23.00;19.50;;;8.20;99.90;;;;;;4995855;28;20957;-63
2022/11/30 08:22:27;;;;;;;22.17;18.73;;;8.20;99.90;;;;;;4996216;28;20531;-63
2022/11/30 08:24:55;;;;;;;18.63;16.63;;;8.30;99.90;;;;;;4996490;28;20453;-67
2022/11/30 08:27:21;;;;;;;19.73;16.97;;;8.30;99.90;;;;;;4996439;28;20509;-67
2022/11/30 08:29:48;;;;;;;20.27;18.00;;;8.30;99.90;;;;;;4998102;28;20509;-68
2022/11/30 08:32:15;;;;;;;20.57;18.40;;;8.40;99.90;;;;;;4998544;28;20887;-63
2022/11/30 08:34:42;;;;;;;21.30;19.00;;;8.40;99.90;;;;;;4998066;28;20450;-63
2022/11/30 08:37:08;;;;;;;26.63;18.10;;;8.50;99.90;;;;;;4997935;28;20497;-64
2022/11/30 08:39:35;;;;;;;22.63;20.27;;;8.50;99.90;;;;;;4996650;28;20571;-63
2022/11/30 08:42:03;;;;;;;23.10;20.67;;;8.50;99.90;;;;;;4995930;28;21047;-63
2022/11/30 08:44:30;;;;;;;22.07;19.33;;;8.50;99.90;;;;;;4995497;28;20941;-63
2022/11/30 08:46:57;;;;;;;24.27;19.70;;;8.50;99.90;;;;;;4995794;28;20508;-63
2022/11/30 08:49:23;;;;;;;22.37;19.90;;;8.50;99.90;;;;;;4995403;28;21055;-63
2022/11/30 08:51:51;;;;;;;23.23;20.73;;;8.60;99.90;;;;;;4995586;28;20497;-63
2022/11/30 08:54:17;;;;;;;22.87;20.10;;;8.60;99.90;;;;;;4995642;28;20461;-63
2022/11/30 08:56:44;;;;;;;23.10;20.60;;;8.70;99.90;;;;;;4995682;28;20462;-63
2022/11/30 08:59:12;;;;;;;22.67;20.13;;;8.70;99.90;;;;;;4995325;28;20533;-63
2022/11/30 09:01:41;;;;;;;28.33;20.90;;;8.70;99.90;;;;;;4994991;28;20488;-63
2022/11/30 09:04:08;;;;;;;23.30;20.90;;;8.60;99.90;;;;;;4995351;28;20450;-63
2022/11/30 09:06:34;;;;;;;22.60;20.00;;;8.60;99.90;;;;;;4995543;28;20512;-63
2022/11/30 09:09:01;;;;;;;22.93;20.10;;;8.60;99.90;;;;;;4995255;28;20478;-63
2022/11/30 09:11:30;;;;;;;23.83;21.23;;;8.50;99.90;;;;;;4995228;28;20528;-63
2022/11/30 09:13:59;;;;;;;24.17;21.67;;;8.50;99.90;;;;;;4995254;28;20504;-62
2022/11/30 09:16:27;;;;;;;24.30;21.70;;;8.50;99.90;;;;;;4995091;28;20461;-62
2022/11/30 09:18:54;;;;;;;25.70;22.23;;;8.60;99.90;;;;;;4994791;28;20461;-62
2022/11/30 09:21:23;;;;;;;25.37;22.00;;;8.60;99.90;;;;;;4995199;28;20484;-63
2022/11/30 09:23:51;;;;;;;25.20;22.33;;;8.60;99.90;;;;;;4995070;28;20504;-63
2022/11/30 09:26:19;;;;;;;25.30;21.80;;;8.60;99.90;;;;;;4995117;28;20540;-62
2022/11/30 09:28:48;;;;;;;27.07;22.43;;;8.70;99.90;;;;;;4994969;28;20464;-62
2022/11/30 09:31:16;;;;;;;24.80;22.23;;;8.70;99.90;;;;;;4994649;28;20973;-63
2022/11/30 09:33:44;;;;;;;25.43;22.83;;;8.80;99.90;;;;;;4995187;28;20872;-63
2022/11/30 09:36:13;;;;;;;25.33;21.77;;;8.90;99.90;;;;;;4995053;28;20516;-63
2022/11/30 09:38:41;;;;;;;24.23;21.63;;;8.90;99.90;;;;;;4995077;28;20781;-63
2022/11/30 09:41:24;;;;;;;23.10;20.60;;;9.00;99.90;;;;;;4994743;28;20980;-63
2022/11/30 09:44:01;;;;;;;23.60;20.30;;;9.00;99.90;;;;;;4994985;28;20442;-63
2022/11/30 09:46:34;;;;;;;27.37;21.50;;;9.00;99.90;;;;;;4994571;28;20446;-62
2022/11/30 09:49:04;;;;;;;28.70;21.47;;;9.00;99.90;;;;;;4995865;28;20461;-63
2022/11/30 09:51:39;;;;;;;23.13;20.33;;;8.90;99.90;;;;;;4995738;28;20473;-63
2022/11/30 09:54:10;;;;;;;25.30;22.03;;;8.90;99.90;;;;;;4994993;28;20473;-63
2022/11/30 09:56:39;;;;;;;25.53;20.17;;;8.90;99.90;;;;;;4994871;28;20442;-63
2022/11/30 09:59:14;;;;;;;24.40;21.80;;;8.90;99.90;;;;;;4994558;28;20941;-63
2022/11/30 10:01:43;;;;;;;23.60;21.10;;;8.90;99.90;;;;;;4995115;28;20535;-63
2022/11/30 10:04:21;;;;;;;24.43;21.83;;;8.90;99.90;;;;;;4995585;28;20485;-63
2022/11/30 10:06:58;;;;;;;24.20;21.70;;;8.90;99.90;;;;;;4995150;28;20449;-63
2022/11/30 10:09:34;;;;;;;23.30;20.80;;;8.90;99.90;;;;;;5009085;28;20461;-63
2022/11/30 10:12:05;;;;;;;21.53;18.70;;;8.90;99.90;;;;;;5010567;28;20473;-63
2022/11/30 10:15:00;;;;;;;21.43;19.13;;;8.90;99.90;;;;;;5007563;28;20438;-63
2022/11/30 10:17:39;;;;;;;27.57;20.40;;;8.90;99.90;;;;;;4995506;28;20442;-64
2022/11/30 10:20:28;;;;;;;26.97;20.10;;;9.00;99.90;;;;;;4995136;28;20438;-63
2022/11/30 10:23:12;;;;;;;23.37;20.20;;;9.00;99.90;;;;;;4995020;28;20440;-63
2022/11/30 10:25:50;;;;;;;25.67;20.87;;;9.00;99.90;;;;;;4994918;28;20442;-63
2022/11/30 10:28:18;;;;;;;22.43;19.97;;;9.10;99.90;;;;;;4995044;28;20449;-63
2022/11/30 10:30:47;;;;;;;20.77;18.20;;;9.10;99.90;;;;;;4994428;28;20485;-63
2022/11/30 10:33:17;;;;;;;23.33;20.47;;;9.20;99.90;;;;;;4994550;28;20458;-63
2022/11/30 10:35:49;;;;;;;24.10;20.33;;;9.20;99.90;;;;;;4994514;28;20874;-63
2022/11/30 10:38:21;;;;;;;23.60;20.50;;;9.30;99.90;;;;;;4994477;28;20495;-63
2022/11/30 10:40:53;;;;;;;24.00;19.10;;;9.30;99.90;;;;;;4994362;28;20634;-63
2022/11/30 10:43:28;;;;;;;25.27;20.00;;;9.30;99.90;;;;;;4994466;28;20442;-63
2022/11/30 10:45:54;;;;;;;25.10;20.20;;;9.30;99.90;;;;;;4994129;28;20924;-66
2022/11/30 10:48:28;;;;;;;24.47;20.87;;;9.30;99.90;;;;;;4995598;28;20457;-71
2022/11/30 10:50:57;;;;;;;20.33;17.97;;;9.30;99.90;;;;;;4994925;28;20485;-62
2022/11/30 10:53:24;;;;;;;24.03;19.20;;;9.30;99.90;;;;;;4994907;28;20534;-63
2022/11/30 10:55:58;;;;;;;17.97;16.17;;;9.30;99.90;;;;;;4994601;28;20501;-63
2022/11/30 10:58:29;;;;;;;19.13;17.10;;;9.20;99.90;;;;;;4995337;28;20983;-64
2022/11/30 11:01:02;;;;;;;20.70;18.57;;;9.20;99.90;;;;;;4997746;28;20539;-64
2022/11/30 11:03:29;;;;;;;21.13;18.90;;;9.20;99.90;;;;;;4998511;28;20450;-63
2022/11/30 11:06:07;;;;;;;20.87;18.73;;;9.20;99.90;;;;;;4997718;28;20519;-63
2022/11/30 11:08:34;;;;;;;21.00;18.60;;;9.10;99.90;;;;;;4997781;28;20600;-64
2022/11/30 11:11:01;;;;;;;20.70;18.60;;;9.10;99.90;;;;;;4997529;28;20490;-63
2022/11/30 11:13:39;;;;;;;17.77;16.07;;;9.10;99.90;;;;;;4997578;28;20578;-64
2022/11/30 11:16:07;;;;;;;20.57;18.50;;;9.00;99.90;;;;;;4997512;28;20527;-62
2022/11/30 11:18:35;;;;;;;18.73;16.77;;;9.10;99.90;;;;;;4997457;28;20449;-63
2022/11/30 11:21:06;;;;;;;19.97;17.97;;;9.10;99.90;;;;;;4997422;28;20489;-63
2022/11/30 11:23:36;;;;;;;20.63;18.63;;;9.10;99.90;;;;;;4997283;28;20774;-63
2022/11/30 11:26:04;;;;;;;23.00;20.67;;;9.10;99.90;;;;;;4997870;28;20453;-63
2022/11/30 11:28:32;;;;;;;21.83;19.43;;;9.20;99.90;;;;;;4997464;28;20453;-63
2022/11/30 11:30:58;;;;;;;24.53;21.50;;;9.20;99.90;;;;;;4997315;28;20485;-63
2022/11/30 11:33:27;;;;;;;22.23;20.00;;;9.20;99.90;;;;;;4997230;28;20508;-63
2022/11/30 11:35:55;;;;;;;24.37;21.87;;;9.20;99.90;;;;;;4997557;28;20508;-63
2022/11/30 11:38:27;;;;;;;24.30;21.20;;;9.20;99.90;;;;;;4997731;28;20461;-63
2022/11/30 11:41:01;;;;;;;24.40;21.93;;;9.10;99.90;;;;;;4997506;28;20821;-63
2022/11/30 11:43:29;;;;;;;23.80;21.17;;;9.10;99.90;;;;;;4997990;28;20508;-63
2022/11/30 11:45:59;;;;;;;24.27;21.73;;;9.10;99.90;;;;;;4997927;28;20460;-62
2022/11/30 11:48:33;;;;;;;23.37;20.87;;;9.20;99.90;;;;;;4997460;28;20454;-62
2022/11/30 11:51:02;;;;;;;23.43;20.83;;;9.10;99.90;;;;;;4997072;28;20981;-64
2022/11/30 11:53:42;;;;;;;22.50;19.77;;;9.10;99.90;;;;;;4997395;28;20480;-64
2022/11/30 11:56:15;;;;;;;19.80;17.80;;;9.20;99.90;;;;;;4996946;28;20500;-64
2022/11/30 11:58:47;;;;;;;19.97;17.90;;;9.20;99.90;;;;;;4997092;28;20455;-63
2022/11/30 12:01:21;;;;;;;20.63;18.13;;;9.30;99.90;;;;;;4996954;28;20513;-62
2022/11/30 12:04:02;;;;;;;20.30;18.20;;;9.30;99.90;;;;;;4996962;28;20442;-62
2022/11/30 12:06:30;;;;;;;20.50;18.30;;;9.30;99.90;;;;;;4997458;28;20446;-62
2022/11/30 12:09:04;;;;;;;21.93;19.27;;;9.40;99.90;;;;;;4996707;28;20458;-62
2022/11/30 12:11:41;;;;;;;22.40;17.33;;;9.40;99.90;;;;;;4996139;28;20493;-61
2022/11/30 12:14:11;;;;;;;20.20;18.10;;;9.50;99.90;;;;;;4996784;28;20497;-62
2022/11/30 12:16:50;;;;;;;20.67;18.47;;;9.40;99.90;;;;;;4997020;28;20447;-62
2022/11/30 12:19:22;;;;;;;19.13;17.23;;;9.40;99.90;;;;;;4996576;28;20437;-62
2022/11/30 12:21:58;;;;;;;18.17;16.37;;;9.40;99.90;;;;;;4996241;28;20481;-61
2022/11/30 12:24:39;;;;;;;18.93;17.03;;;9.40;99.90;;;;;;4996007;28;20438;-62
2022/11/30 12:27:17;;;;;;;19.63;17.53;;;9.30;99.90;;;;;;4996083;28;20445;-62
2022/11/30 12:29:50;;;;;;;18.93;17.03;;;9.20;99.90;;;;;;4996247;28;20442;-62
2022/11/30 12:32:28;;;;;;;19.10;17.13;;;9.10;99.90;;;;;;4996596;28;20538;-62
2022/11/30 12:35:13;;;;;;;20.27;18.17;;;9.10;99.90;;;;;;4997400;28;20442;-62
2022/11/30 12:37:48;;;;;;;18.90;17.07;;;9.00;99.90;;;;;;4996518;28;20453;-62
2022/11/30 12:40:31;;;;;;;19.63;17.63;;;9.00;99.90;;;;;;4995840;28;20434;-62
2022/11/30 12:43:07;;;;;;;20.97;17.87;;;9.00;99.90;;;;;;4996111;28;20446;-61
2022/11/30 12:45:37;;;;;;;20.40;18.30;;;8.90;99.90;;;;;;4995889;28;20460;-61
2022/11/30 12:48:13;;;;;;;21.03;18.90;;;8.90;99.90;;;;;;4995357;28;20581;-62
2022/11/30 12:50:50;;;;;;;23.40;19.63;;;8.90;99.90;;;;;;4995579;28;20478;-61
2022/11/30 12:53:40;;;;;;;25.13;19.73;;;8.80;99.90;;;;;;4995826;28;20438;-62
2022/11/30 12:56:18;;;;;;;22.13;19.77;;;8.80;99.90;;;;;;4995847;28;20448;-64
2022/11/30 12:58:51;;;;;;;22.50;20.07;;;8.80;99.90;;;;;;4995761;28;20802;-61
2022/11/30 13:01:33;;;;;;;21.87;19.50;;;8.80;99.90;;;;;;4995455;28;20488;-61
2022/11/30 13:04:06;;;;;;;25.33;19.43;;;8.80;99.90;;;;;;4995380;28;20913;-61
2022/11/30 13:06:38;;;;;;;20.23;18.03;;;8.90;99.90;;;;;;4995078;28;20925;-61
2022/11/30 13:09:13;;;;;;;24.10;19.73;;;8.90;99.90;;;;;;4996241;28;20765;-61
2022/11/30 13:11:46;;;;;;;20.30;18.20;;;8.80;99.90;;;;;;4994708;28;20845;-61
2022/11/30 13:14:16;;;;;;;20.10;17.97;;;8.90;99.90;;;;;;4996082;28;20445;-62
2022/11/30 13:16:44;;;;;;;24.63;19.80;;;8.90;99.90;;;;;;4995051;28;20825;-61
2022/11/30 13:19:29;;;;;;;20.10;18.10;;;8.90;99.90;;;;;;4995090;28;20505;-61
2022/11/30 13:22:02;;;;;;;22.40;18.50;;;8.90;99.90;;;;;;4993906;28;20996;-62
2022/11/30 13:24:35;;;;;;;20.50;18.40;;;8.90;99.90;;;;;;4995065;28;20557;-61
2022/11/30 13:27:10;;;;;;;19.57;17.67;;;8.90;99.90;;;;;;4995861;28;20488;-62
2022/11/30 13:29:58;;;;;;;19.73;17.63;;;8.90;99.90;;;;;;4995117;28;20489;-61
2022/11/30 13:32:26;;;;;;;18.63;16.90;;;8.90;99.90;;;;;;4994870;28;20504;-61
2022/11/30 13:34:52;;;;;;;17.77;16.07;;;8.90;99.90;;;;;;4994737;28;20442;-62
2022/11/30 13:37:21;;;;;;;17.33;15.63;;;8.90;99.90;;;;;;4994747;28;20461;-62
2022/11/30 13:39:50;;;;;;;17.53;15.93;;;8.90;99.90;;;;;;4994526;28;20457;-62
2022/11/30 13:42:41;;;;;;;16.00;14.40;;;8.90;99.90;;;;;;4994496;28;20480;-62
2022/11/30 13:45:31;;;;;;;17.00;15.30;;;8.90;99.90;;;;;;4994417;28;20976;-62
2022/11/30 13:47:59;;;;;;;18.57;15.90;;;8.90;99.90;;;;;;4982046;28;20548;-62
2022/11/30 13:50:36;;;;;;;16.50;14.90;;;8.80;99.90;;;;;;4994744;28;20477;-64
2022/11/30 13:53:21;;;;;;;17.40;15.70;;;8.80;99.90;;;;;;4995000;28;20496;-65
2022/11/30 13:56:07;;;;;;;18.63;16.90;;;8.80;99.90;;;;;;4994375;28;20919;-65
2022/11/30 13:58:35;;;;;;;17.53;15.73;;;8.80;99.90;;;;;;4994820;28;20865;-66
2022/11/30 14:01:20;;;;;;;18.03;16.33;;;8.80;99.90;;;;;;4994974;28;20481;-65
2022/11/30 14:04:21;;;;;;;18.27;16.17;;;8.80;99.90;;;;;;4994881;28;20521;-65
2022/11/30 14:06:50;;;;;;;17.40;15.70;;;8.80;99.90;;;;;;4982530;28;20492;-65
2022/11/30 14:09:39;;;;;;;18.10;16.30;;;8.80;99.90;;;;;;4995595;28;20449;-66
2022/11/30 14:12:39;;;;;;;18.00;16.30;;;8.80;99.90;;;;;;4994421;28;20484;-65
2022/11/30 14:15:30;;;;;;;18.17;16.37;;;8.80;99.90;;;;;;4995548;28;20540;-65
2022/11/30 14:17:58;;;;;;;18.10;16.40;;;8.80;99.90;;;;;;4994968;28;20460;-65
2022/11/30 14:20:31;;;;;;;18.50;16.70;;;8.80;99.90;;;;;;4994730;28;20838;-65
2022/11/30 14:23:02;;;;;;;18.97;17.00;;;8.70;99.90;;;;;;4995627;28;20442;-68
2022/11/30 14:25:30;;;;;;;17.73;15.87;;;8.70;99.90;;;;;;4995167;28;20786;-68
2022/11/30 14:27:58;;;;;;;17.50;15.80;;;8.70;99.90;;;;;;4994853;28;20528;-65
2022/11/30 14:30:26;;;;;;;19.17;17.37;;;8.70;99.90;;;;;;4994459;28;20481;-64
2022/11/30 14:32:59;;;;;;;18.90;17.10;;;8.70;99.90;;;;;;4995441;28;20817;-65
2022/11/30 14:35:30;;;;;;;18.80;16.90;;;8.70;99.90;;;;;;4998694;28;20508;-65
2022/11/30 14:37:59;;;;;;;20.17;17.97;;;8.70;99.90;;;;;;4998260;28;20808;-63
2022/11/30 14:40:28;;;;;;;20.33;18.20;;;8.70;99.90;;;;;;4999362;28;20456;-65
2022/11/30 14:42:58;;;;;;;21.70;18.87;;;8.70;99.90;;;;;;5001060;28;20454;-65
2022/11/30 14:45:28;;;;;;;20.73;18.63;;;8.70;99.90;;;;;;5000563;28;20457;-65
2022/11/30 14:48:06;;;;;;;19.73;17.80;;;8.70;99.90;;;;;;4999848;28;20452;-62
2022/11/30 14:50:33;;;;;;;21.10;18.03;;;8.70;99.90;;;;;;4999072;28;20469;-62
2022/11/30 14:53:17;;;;;;;21.17;18.90;;;8.70;99.90;;;;;;4999253;28;20453;-63
2022/11/30 14:55:50;;;;;;;21.23;18.90;;;8.70;99.90;;;;;;4999077;28;20442;-61
2022/11/30 14:58:23;;;;;;;21.03;18.83;;;8.70;99.90;;;;;;4997701;28;20909;-62
2022/11/30 15:00:51;;;;;;;20.30;18.30;;;8.60;99.90;;;;;;4997467;28;20481;-62
2022/11/30 15:03:23;;;;;;;20.57;18.60;;;8.60;99.90;;;;;;4997756;28;20441;-62
2022/11/30 15:05:52;;;;;;;20.27;18.27;;;8.60;99.90;;;;;;4997255;28;20921;-62
2022/11/30 15:08:19;;;;;;;20.70;18.60;;;8.60;99.90;;;;;;4997636;28;20465;-62
2022/11/30 15:10:47;;;;;;;20.67;18.57;;;8.50;99.90;;;;;;4997437;28;20536;-63
2022/11/30 15:13:17;;;;;;;21.07;18.90;;;8.50;99.90;;;;;;4998111;28;20937;-63
2022/11/30 15:15:52;;;;;;;21.07;18.40;;;8.50;99.90;;;;;;4999695;28;20441;-63
2022/11/30 15:18:19;;;;;;;20.90;18.60;;;8.40;99.90;;;;;;4998861;28;20469;-63
2022/11/30 15:20:51;;;;;;;21.90;19.53;;;8.40;99.90;;;;;;4997463;28;20520;-61
2022/11/30 15:23:17;;;;;;;20.33;18.20;;;8.50;99.90;;;;;;4997364;28;20500;-62
2022/11/30 15:25:47;;;;;;;20.67;18.57;;;8.40;99.90;;;;;;4997294;28;20457;-61
2022/11/30 15:28:20;;;;;;;23.93;20.23;;;8.40;99.90;;;;;;4998447;28;20829;-62
2022/11/30 15:30:48;;;;;;;23.50;21.00;;;8.40;99.90;;;;;;4997490;28;20485;-65
2022/11/30 15:33:19;;;;;;;21.53;19.30;;;8.40;99.90;;;;;;4997303;28;20949;-61
2022/11/30 15:35:47;;;;;;;24.90;21.20;;;8.50;99.90;;;;;;4997326;28;20446;-61
2022/11/30 15:38:18;;;;;;;22.77;20.43;;;8.50;99.90;;;;;;4997348;28;20964;-61
2022/11/30 15:40:47;;;;;;;21.40;19.30;;;8.50;99.90;;;;;;4996964;28;20466;-62
2022/11/30 15:43:22;;;;;;;22.10;19.70;;;8.50;99.90;;;;;;4996810;28;20929;-61
2022/11/30 15:45:54;;;;;;;24.10;21.50;;;8.50;99.90;;;;;;4995956;28;20437;-60
2022/11/30 15:48:39;;;;;;;25.43;22.60;;;8.60;99.90;;;;;;4996716;28;20526;-61
2022/11/30 15:51:06;;;;;;;27.30;23.27;;;8.50;99.90;;;;;;4996664;28;20481;-61
2022/11/30 15:53:35;;;;;;;26.80;23.90;;;8.50;99.90;;;;;;4997169;28;20494;-61
2022/11/30 15:56:06;;;;;;;31.40;25.70;;;8.50;99.90;;;;;;4996672;28;20458;-61
2022/11/30 15:58:44;;;;;;;28.20;24.60;;;8.50;99.90;;;;;;4996743;28;20446;-61
2022/11/30 16:01:14;;;;;;;29.20;25.30;;;8.50;99.90;;;;;;4996300;28;20477;-61
2022/11/30 16:04:04;;;;;;;29.93;26.40;;;8.50;99.90;;;;;;4996606;28;20438;-63
2022/11/30 16:06:34;;;;;;;30.50;26.67;;;8.50;99.90;;;;;;4996217;28;20832;-62
2022/11/30 16:09:05;;;;;;;32.00;28.00;;;8.40;99.90;;;;;;4996509;28;20445;-62
2022/11/30 16:11:33;;;;;;;33.23;28.67;;;8.40;99.90;;;;;;4996065;28;20572;-62
2022/11/30 16:14:00;;;;;;;31.23;27.53;;;8.30;99.90;;;;;;4996754;28;20458;-61
2022/11/30 16:16:30;;;;;;;32.83;29.40;;;8.40;99.90;;;;;;4996411;28;20450;-61
2022/11/30 16:18:58;;;;;;;32.47;29.10;;;8.30;99.90;;;;;;4996606;28;20817;-60
2022/11/30 16:21:24;;;;;;;34.80;30.23;;;8.30;99.90;;;;;;4996496;28;20477;-61
2022/11/30 16:23:51;;;;;;;32.90;29.40;;;8.30;99.90;;;;;;4996429;28;20488;-61
2022/11/30 16:26:19;;;;;;;34.90;30.07;;;8.30;99.90;;;;;;4996345;28;20607;-61
2022/11/30 16:28:45;;;;;;;36.47;31.80;;;8.20;99.90;;;;;;4996354;28;20500;-61
2022/11/30 16:31:17;;;;;;;34.70;30.57;;;8.20;99.90;;;;;;4996324;28;20536;-61
2022/11/30 16:33:44;;;;;;;36.77;32.70;;;8.20;99.90;;;;;;4996255;28;20446;-61
2022/11/30 16:36:16;;;;;;;32.50;29.00;;;8.10;99.90;;;;;;4996045;28;20481;-61
2022/11/30 16:38:43;;;;;;;34.80;30.17;;;8.20;99.90;;;;;;4996212;28;20442;-62
2022/11/30 16:41:15;;;;;;;29.07;26.07;;;8.10;99.90;;;;;;4996309;28;20470;-61
2022/11/30 16:43:42;;;;;;;25.33;22.70;;;8.10;99.90;;;;;;4996162;28;20442;-61
2022/11/30 16:46:10;;;;;;;23.80;21.33;;;8.10;99.90;;;;;;4996524;28;20454;-61
2022/11/30 16:48:38;;;;;;;23.47;21.17;;;8.20;99.90;;;;;;4996057;28;20534;-62
2022/11/30 16:51:04;;;;;;;21.17;19.03;;;8.10;99.90;;;;;;4995498;28;20991;-62
2022/11/30 16:53:32;;;;;;;22.00;19.90;;;8.10;99.90;;;;;;4996134;28;20461;-61
2022/11/30 16:56:00;;;;;;;20.47;18.33;;;8.10;99.90;;;;;;4996303;28;20454;-61
2022/11/30 16:58:26;;;;;;;20.10;18.30;;;8.10;99.90;;;;;;4996751;28;20490;-61
2022/11/30 17:00:53;;;;;;;21.17;19.07;;;8.10;99.90;;;;;;4996856;28;20501;-61
2022/11/30 17:03:23;;;;;;;19.57;17.70;;;8.00;99.90;;;;;;4995880;28;20454;-61
2022/11/30 17:05:50;;;;;;;17.87;16.27;;;8.10;99.90;;;;;;4996055;28;20972;-63
2022/11/30 17:08:17;;;;;;;19.10;17.20;;;8.00;99.90;;;;;;4995944;28;20442;-61
2022/11/30 17:10:45;;;;;;;18.60;16.77;;;8.00;99.90;;;;;;4995495;28;20482;-61
2022/11/30 17:13:14;;;;;;;18.33;16.70;;;8.00;99.90;;;;;;4995668;28;20469;-61
2022/11/30 17:15:41;;;;;;;18.70;17.00;;;8.00;99.90;;;;;;4995668;28;20454;-60
2022/11/30 17:18:08;;;;;;;17.17;15.57;;;8.00;99.90;;;;;;4995892;28;20453;-60
2022/11/30 17:20:36;;;;;;;18.20;16.60;;;7.80;99.90;;;;;;4995380;28;20462;-60
2022/11/30 17:23:03;;;;;;;18.03;16.43;;;7.80;99.90;;;;;;4994982;28;20945;-61
2022/11/30 17:25:30;;;;;;;18.70;17.00;;;7.80;99.90;;;;;;4995452;28;20457;-61
2022/11/30 17:27:58;;;;;;;18.47;16.77;;;7.80;99.90;;;;;;4995788;28;20485;-61
2022/11/30 17:30:26;;;;;;;17.70;16.10;;;7.80;99.90;;;;;;4995243;28;20465;-61
2022/11/30 17:32:54;;;;;;;18.10;16.33;;;7.80;99.90;;;;;;4995440;28;20478;-65
2022/11/30 17:35:20;;;;;;;19.17;17.43;;;7.80;99.90;;;;;;4995201;28;20457;-65
2022/11/30 17:37:47;;;;;;;17.80;16.00;;;7.80;99.90;;;;;;4995203;28;20458;-61
2022/11/30 17:40:15;;;;;;;18.67;16.87;;;7.80;99.90;;;;;;4994971;28;20454;-60
2022/11/30 17:42:42;;;;;;;18.17;16.40;;;7.80;99.90;;;;;;4994860;28;20555;-60
2022/11/30 17:45:11;;;;;;;19.17;17.20;;;7.80;99.90;;;;;;4994783;28;20581;-59
2022/11/30 17:47:38;;;;;;;18.67;16.80;;;7.80;99.90;;;;;;4995187;28;20453;-60
2022/11/30 17:50:06;;;;;;;19.80;17.87;;;7.80;99.90;;;;;;4995202;28;20485;-65
2022/11/30 17:52:33;;;;;;;18.57;16.73;;;7.70;99.90;;;;;;4994843;28;20564;-65
2022/11/30 17:54:59;;;;;;;19.50;17.60;;;7.70;99.90;;;;;;4994964;28;20457;-65
2022/11/30 17:57:26;;;;;;;19.63;17.67;;;7.70;99.90;;;;;;4995148;28;20516;-65